EGPKEGEC

Guest
Details From EGPK - Prestwick
To EGEC - Campbeltown
Flight Number -
Tags generated
Created
Modified
Stats Distance 38 nm / 70 km
Max Altitude 200 ft / 61 m
Waypoints 3
Social Downloads 2
Likes 0
Share VATSIM

Download

Looking for another format? Having issues loading an existing format? Contact us
Advertisement - Login to hide

Notes

Basic altitude profile: - Ascent Rate: 2500ft/min - Ascent Speed: 250kts - Cruise Altitude: 35000ft - Cruise Speed: 420kts - Descent Rate: 1500ft/min - Descent Speed: 250kts

Route

EGPK MAC EGEC

ID Type Via Altitude Latitude Longitude Leg Dist Tot Dist Heading (true) Name
O EGPK APT - 0 ft / 0 m 55.50230˚ -4.58836˚ - 0 nm - Prestwick
MAC VOR - 200 ft / 61 m 55.43000˚ -5.65028˚ 36 nm 36 nm 264° / 263° MACHRIHANISH VOR-DME
O EGEC APT - 0 ft / 0 m 55.43731˚ -5.68625˚ 1 nm 37 nm 290° / 290° Campbeltown

Altitude Profile

Advertisement - Login to hide

EGPK

Details ICAO EGPK (PIK)
Name Prestwick
Region United Kingdom
Timezone Europe/London (UTC+1.0)
Stats Elevation 65 ft / 20 m (AMSL)
Location 55.502302° -4.588363°
Runways 2
Magnetic Variation 2.652° W

METAR

EGPK 260150Z 07004KT 030V100 9999 FEW040 13/09 Q1027

Decode

TAF

TAF TAF EGPK 252257Z 2600/2624 05008KT 9999 FEW045

Decode

Departure Runways

ID Width Length Bearing (true) Bearing (mag) Surface Threshold Offset Overrun Length
03 148 ft / 45 m 6,534 ft / 1,992 m 23.69° 26.34° Asphalt 538 ft / 164 m 0 ft / 0 m
13 151 ft / 46 m 9,789 ft / 2,984 m 121.38° 124.03° Asphalt 817 ft / 249 m 0 ft / 0 m
21 148 ft / 45 m 6,534 ft / 1,992 m 203.71° 206.36° Asphalt 0 ft / 0 m 0 ft / 0 m
31 151 ft / 46 m 9,789 ft / 2,984 m 301.42° 304.07° Asphalt 0 ft / 0 m 0 ft / 0 m

EGEC

Details ICAO EGEC (CAL)
Name Campbeltown
Region United Kingdom
Timezone Europe/London (UTC+1.0)
Stats Elevation 44 ft / 13 m (AMSL)
Location 55.437314° -5.686252°
Runways 1
Magnetic Variation 3.096° W

METAR

EGEC 260220Z VRB01KT CAVOK 15/08 Q1026

Decode

TAF

Not found

Destination Runways

ID Width Length Bearing (true) Bearing (mag) Surface Threshold Offset Overrun Length
11 151 ft / 46 m 9,976 ft / 3,041 m 106.08° 109.18° Asphalt 535 ft / 163 m 0 ft / 0 m
29 151 ft / 46 m 9,976 ft / 3,041 m 286.12° 289.22° Asphalt 1,332 ft / 406 m 0 ft / 0 m